createdAt,value
2023-03-06T00:00:29.702Z,25.27
2023-03-06T00:02:58.889Z,23.48
2023-03-06T00:05:26.952Z,27.27
2023-03-06T00:07:54.588Z,25.20
2023-03-06T00:10:23.504Z,29.55
2023-03-06T00:12:52.179Z,23.42
2023-03-06T00:15:20.018Z,24.98
2023-03-06T00:17:48.766Z,26.70
2023-03-06T00:20:18.071Z,25.50
2023-03-06T00:22:47.463Z,31.20
2023-03-06T00:25:18.036Z,29.67
2023-03-06T00:27:45.731Z,25.98
2023-03-06T00:30:15.608Z,26.60
2023-03-06T00:32:43.739Z,30.25
2023-03-06T00:35:11.886Z,30.10
2023-03-06T00:37:39.564Z,29.52
2023-03-06T00:40:10.495Z,36.35
2023-03-06T00:42:38.173Z,23.88
2023-03-06T00:45:06.150Z,31.48
2023-03-06T00:47:33.814Z,32.50
2023-03-06T00:50:01.670Z,31.00
2023-03-06T00:52:29.292Z,36.05
2023-03-06T00:54:56.940Z,29.83
2023-03-06T00:57:25.972Z,35.20
2023-03-06T00:59:53.582Z,31.50
2023-03-06T01:02:21.268Z,27.40
2023-03-06T01:04:48.950Z,36.75
2023-03-06T01:07:16.590Z,29.10
2023-03-06T01:09:44.236Z,37.70
2023-03-06T01:12:12.050Z,27.35
2023-03-06T01:14:41.663Z,32.75
2023-03-06T01:17:09.271Z,32.15
2023-03-06T01:19:37.298Z,33.08
2023-03-06T01:22:04.934Z,34.83
2023-03-06T01:24:32.588Z,36.10
2023-03-06T01:27:00.259Z,31.85
2023-03-06T01:29:28.025Z,34.65
2023-03-06T01:31:57.217Z,34.08
2023-03-06T01:34:24.943Z,36.35
2023-03-06T01:36:52.541Z,34.40
2023-03-06T01:39:20.200Z,36.15
2023-03-06T01:41:47.809Z,26.90
2023-03-06T01:44:15.718Z,39.22
2023-03-06T01:46:44.013Z,34.20
2023-03-06T01:49:17.975Z,39.08
2023-03-06T01:51:48.680Z,38.60
2023-03-06T01:54:18.833Z,32.15
2023-03-06T01:56:47.913Z,29.42
2023-03-06T01:59:15.836Z,35.08
2023-03-06T02:01:44.553Z,28.85
2023-03-06T02:04:13.226Z,34.05
2023-03-06T02:06:44.273Z,36.10
2023-03-06T02:09:12.390Z,34.47
2023-03-06T02:11:43.999Z,34.85
2023-03-06T02:14:13.025Z,35.88
2023-03-06T02:16:40.940Z,32.03
2023-03-06T02:19:09.952Z,31.63
2023-03-06T02:21:38.462Z,38.60
2023-03-06T02:24:23.542Z,39.35
2023-03-06T02:26:53.446Z,36.13
2023-03-06T02:29:23.030Z,35.80
2023-03-06T02:31:50.693Z,30.38
2023-03-06T02:34:37.317Z,35.25
2023-03-06T02:37:08.876Z,43.35
2023-03-06T02:39:40.110Z,33.15
2023-03-06T02:42:09.144Z,34.78
2023-03-06T02:44:37.061Z,32.83
2023-03-06T02:47:04.684Z,32.70
2023-03-06T02:49:32.328Z,36.25
2023-03-06T02:51:59.991Z,33.17
2023-03-06T02:54:27.773Z,36.22
2023-03-06T02:56:55.400Z,35.10
2023-03-06T02:59:24.502Z,34.35
2023-03-06T03:01:52.123Z,34.22
2023-03-06T03:04:19.821Z,38.67
2023-03-06T03:06:47.517Z,36.75
2023-03-06T03:09:15.115Z,32.90
2023-03-06T03:11:42.795Z,29.70
2023-03-06T03:14:10.533Z,36.58
2023-03-06T03:16:39.545Z,30.95
2023-03-06T03:19:07.122Z,32.35
2023-03-06T03:21:34.798Z,27.35
2023-03-06T03:24:02.465Z,30.77
2023-03-06T03:26:30.045Z,31.25
2023-03-06T03:28:57.700Z,36.75
2023-03-06T03:31:25.403Z,28.42
2023-03-06T03:33:54.447Z,33.22
2023-03-06T03:36:22.218Z,32.80
2023-03-06T03:38:49.917Z,31.60
2023-03-06T03:41:17.531Z,41.58
2023-03-06T03:43:45.160Z,37.47
2023-03-06T03:46:12.810Z,32.95
2023-03-06T03:48:40.443Z,28.95
2023-03-06T03:51:11.049Z,29.25
2023-03-06T03:53:38.843Z,28.20
2023-03-06T03:56:06.790Z,32.13
2023-03-06T03:58:34.399Z,30.27
2023-03-06T04:01:02.299Z,33.92
2023-03-06T04:03:30.012Z,27.52
2023-03-06T04:05:58.078Z,33.28
2023-03-06T04:08:27.674Z,34.30
2023-03-06T04:10:55.593Z,29.88
2023-03-06T04:13:24.284Z,31.30
2023-03-06T04:15:53.053Z,33.25
2023-03-06T04:18:21.424Z,38.75
2023-03-06T04:20:55.949Z,31.83
2023-03-06T04:23:24.337Z,38.17
2023-03-06T04:25:53.336Z,31.45
2023-03-06T04:28:21.249Z,32.25
2023-03-06T04:30:48.958Z,32.75
2023-03-06T04:33:16.716Z,28.80
2023-03-06T04:35:44.399Z,33.00
2023-03-06T04:38:12.024Z,37.95
2023-03-06T04:40:40.281Z,31.85
2023-03-06T04:43:09.449Z,38.45
2023-03-06T04:45:39.326Z,31.77
2023-03-06T04:48:07.311Z,38.10
2023-03-06T04:50:35.018Z,35.10
2023-03-06T04:53:03.609Z,45.63
2023-03-06T04:55:31.620Z,29.10
2023-03-06T04:58:00.047Z,32.78
2023-03-06T05:00:31.430Z,31.38
2023-03-06T05:03:00.210Z,36.55
2023-03-06T05:05:28.222Z,36.72
2023-03-06T05:07:55.948Z,39.20
2023-03-06T05:10:23.683Z,37.80
2023-03-06T05:12:51.966Z,35.53
2023-03-06T05:15:19.965Z,36.75
2023-03-06T05:17:48.941Z,34.92
2023-03-06T05:20:16.974Z,42.35
2023-03-06T05:22:44.664Z,33.15
2023-03-06T05:25:12.683Z,34.03
2023-03-06T05:27:40.561Z,31.48
2023-03-06T05:30:08.770Z,38.53
2023-03-06T05:32:38.474Z,35.72
2023-03-06T05:35:08.141Z,43.47
2023-03-06T05:37:35.750Z,41.22
2023-03-06T05:40:05.309Z,42.92
2023-03-06T05:42:32.914Z,39.42
2023-03-06T05:45:00.585Z,37.05
2023-03-06T05:47:28.254Z,30.77
2023-03-06T05:49:55.872Z,28.20
2023-03-06T05:52:24.892Z,38.88
2023-03-06T05:54:53.292Z,36.67
2023-03-06T05:57:21.257Z,34.55
2023-03-06T05:59:51.837Z,40.38
2023-03-06T06:02:19.900Z,39.92
2023-03-06T06:04:47.550Z,41.22
2023-03-06T06:07:17.610Z,39.38
2023-03-06T06:09:46.849Z,44.03
2023-03-06T06:12:14.748Z,39.95
2023-03-06T06:14:42.520Z,38.72
2023-03-06T06:17:12.484Z,40.60
2023-03-06T06:19:40.442Z,44.88
2023-03-06T06:22:08.310Z,42.50
2023-03-06T06:24:43.133Z,41.15
2023-03-06T06:27:12.153Z,45.60
2023-03-06T06:29:39.757Z,38.47
2023-03-06T06:32:07.797Z,41.90
2023-03-06T06:34:35.713Z,37.92
2023-03-06T06:37:03.326Z,38.67
2023-03-06T06:39:31.026Z,38.78
2023-03-06T06:42:20.821Z,42.85
2023-03-06T06:44:47.667Z,37.88
2023-03-06T06:47:22.722Z,45.00
2023-03-06T06:49:51.928Z,39.65
2023-03-06T06:52:19.814Z,43.42
2023-03-06T06:54:47.661Z,42.05
2023-03-06T06:57:15.452Z,47.47
2023-03-06T06:59:43.380Z,46.97
2023-03-06T07:02:12.937Z,47.67
2023-03-06T07:04:52.350Z,43.00
2023-03-06T07:07:28.191Z,43.03
2023-03-06T07:09:56.448Z,52.13
2023-03-06T07:12:24.070Z,41.05
2023-03-06T07:14:52.112Z,39.38
2023-03-06T07:17:21.282Z,34.55
2023-03-06T07:19:49.305Z,38.50
2023-03-06T07:22:16.939Z,45.10
2023-03-06T07:24:44.756Z,38.20
2023-03-06T07:27:13.747Z,41.08
2023-03-06T07:29:43.599Z,37.35
2023-03-06T07:32:11.316Z,38.75
2023-03-06T07:34:40.324Z,39.15
2023-03-06T07:37:07.966Z,37.88
2023-03-06T07:39:36.199Z,38.92
2023-03-06T07:42:03.976Z,38.20
2023-03-06T07:44:31.852Z,35.75
2023-03-06T07:46:59.696Z,38.38
2023-03-06T07:49:27.381Z,40.63
2023-03-06T07:51:56.363Z,36.22
2023-03-06T07:54:24.153Z,37.80
2023-03-06T07:56:51.898Z,38.60
2023-03-06T07:59:19.891Z,34.10
2023-03-06T08:01:47.553Z,40.53
2023-03-06T08:04:15.337Z,40.75
2023-03-06T08:06:42.980Z,38.63
2023-03-06T08:09:12.114Z,37.80
2023-03-06T08:11:39.780Z,42.17
2023-03-06T08:14:11.586Z,41.85
2023-03-06T08:16:39.473Z,38.88
2023-03-06T08:19:07.146Z,44.08
2023-03-06T08:21:34.803Z,37.75
2023-03-06T08:24:03.116Z,39.63
2023-03-06T08:26:32.940Z,35.47
2023-03-06T08:29:01.360Z,39.55
2023-03-06T08:31:30.246Z,32.35
2023-03-06T08:33:59.870Z,41.05
2023-03-06T08:36:27.584Z,38.80
2023-03-06T08:38:57.871Z,41.60
2023-03-06T08:41:25.907Z,39.40
2023-03-06T08:43:54.927Z,39.15
2023-03-06T08:46:24.301Z,34.22
2023-03-06T08:48:52.117Z,39.67
2023-03-06T08:51:21.032Z,35.95
2023-03-06T08:53:48.662Z,40.38
2023-03-06T08:56:16.701Z,32.22
2023-03-06T08:58:44.342Z,30.35
2023-03-06T09:01:15.459Z,31.83
2023-03-06T09:03:43.143Z,30.45
2023-03-06T09:06:10.750Z,37.20
2023-03-06T09:08:42.898Z,31.80
2023-03-06T09:11:10.840Z,33.70
2023-03-06T09:13:38.618Z,30.40
2023-03-06T09:16:06.647Z,29.45
2023-03-06T09:18:35.632Z,29.83
2023-03-06T09:21:08.259Z,31.45
2023-03-06T09:23:37.179Z,24.13
2023-03-06T09:26:04.877Z,31.63
2023-03-06T09:28:33.400Z,35.58
2023-03-06T09:31:01.057Z,31.42
2023-03-06T09:33:31.359Z,29.70
2023-03-06T09:36:00.386Z,35.03
2023-03-06T09:38:28.513Z,28.67
2023-03-06T09:41:02.885Z,26.48
2023-03-06T09:43:35.374Z,24.98
2023-03-06T09:46:07.361Z,28.70
2023-03-06T09:48:40.092Z,30.17
2023-03-06T09:51:11.753Z,23.73
2023-03-06T09:53:45.383Z,27.23
2023-03-06T09:56:15.998Z,30.45
2023-03-06T09:58:46.205Z,30.98
2023-03-06T10:01:20.756Z,28.88
2023-03-06T10:03:50.480Z,28.33
2023-03-06T10:06:21.570Z,27.27
2023-03-06T10:08:50.274Z,25.38
2023-03-06T10:11:20.980Z,27.05
2023-03-06T10:13:51.551Z,28.98
2023-03-06T10:16:27.423Z,25.65
2023-03-06T10:19:03.174Z,29.10
2023-03-06T10:21:39.554Z,30.60
2023-03-06T10:24:12.568Z,24.58
2023-03-06T10:26:41.860Z,26.52
2023-03-06T10:29:21.323Z,24.05
2023-03-06T10:31:51.292Z,27.30
2023-03-06T10:34:22.565Z,28.10
2023-03-06T10:36:51.565Z,35.30
2023-03-06T10:39:20.771Z,23.73
2023-03-06T10:41:48.969Z,27.02
2023-03-06T10:44:24.130Z,26.58
2023-03-06T10:46:53.317Z,26.85
2023-03-06T10:49:25.408Z,26.95
2023-03-06T10:51:58.482Z,25.10
2023-03-06T10:54:26.595Z,31.23
2023-03-06T10:56:54.214Z,27.48
2023-03-06T10:59:23.062Z,28.20
2023-03-06T11:01:51.799Z,21.98
2023-03-06T11:04:27.457Z,24.00
2023-03-06T11:07:13.532Z,22.98
2023-03-06T11:09:41.572Z,24.65
2023-03-06T11:12:20.556Z,27.30
2023-03-06T11:14:49.104Z,23.65
2023-03-06T11:17:28.057Z,23.30
2023-03-06T11:20:08.435Z,24.77
2023-03-06T11:22:39.700Z,25.90
2023-03-06T11:25:11.354Z,25.52
2023-03-06T11:27:42.640Z,25.27
2023-03-06T11:30:16.540Z,26.83
2023-03-06T11:32:47.023Z,27.75
2023-03-06T11:35:17.723Z,27.50
2023-03-06T11:37:51.223Z,28.45
2023-03-06T11:40:21.794Z,24.73
2023-03-06T11:42:53.828Z,26.23
2023-03-06T11:45:25.173Z,28.05
2023-03-06T11:47:55.343Z,27.08
2023-03-06T11:50:26.312Z,30.10
2023-03-06T11:52:58.450Z,24.17
2023-03-06T11:55:35.599Z,25.75
2023-03-06T11:58:30.342Z,29.67
2023-03-06T12:01:00.427Z,26.25
2023-03-06T12:03:44.746Z,30.73
2023-03-06T12:06:20.572Z,31.80
2023-03-06T12:08:53.047Z,32.78
2023-03-06T12:11:23.197Z,32.95
2023-03-06T12:14:09.379Z,32.97
2023-03-06T12:16:45.283Z,26.73
2023-03-06T12:19:19.708Z,27.88
2023-03-06T12:21:53.443Z,29.05
2023-03-06T12:24:38.125Z,29.25
2023-03-06T12:27:10.334Z,29.35
2023-03-06T12:29:52.954Z,30.05
2023-03-06T12:32:27.832Z,24.27
2023-03-06T12:35:07.342Z,24.15
2023-03-06T12:37:39.427Z,25.27
2023-03-06T12:40:15.413Z,19.85
2023-03-06T12:42:59.993Z,26.23
2023-03-06T12:45:30.667Z,24.80
2023-03-06T12:47:58.517Z,19.63
2023-03-06T12:50:27.647Z,17.10
2023-03-06T12:52:56.347Z,22.65
2023-03-06T12:55:26.110Z,16.48
2023-03-06T12:57:54.303Z,17.80
2023-03-06T13:00:40.855Z,17.13
2023-03-06T13:03:15.989Z,15.98
2023-03-06T13:05:53.142Z,17.17
2023-03-06T13:08:30.830Z,14.90
2023-03-06T13:11:11.281Z,16.23
2023-03-06T13:13:43.811Z,18.25
2023-03-06T13:16:14.018Z,18.48
2023-03-06T13:18:53.409Z,16.58
2023-03-06T13:21:39.468Z,14.10
2023-03-06T13:24:07.329Z,20.75
2023-03-06T13:26:54.782Z,20.52
2023-03-06T13:29:41.053Z,19.25
2023-03-06T13:32:16.880Z,15.57
2023-03-06T13:34:46.924Z,14.43
2023-03-06T13:37:33.209Z,16.13
2023-03-06T13:40:19.531Z,13.43
2023-03-06T13:43:02.044Z,17.90
2023-03-06T13:45:34.233Z,18.52
2023-03-06T13:48:24.924Z,16.42
2023-03-06T13:50:50.565Z,20.27
2023-03-06T13:53:30.251Z,17.80
2023-03-06T13:56:03.532Z,15.25
2023-03-06T13:58:41.748Z,12.88
2023-03-06T14:01:27.382Z,14.60
2023-03-06T14:04:12.332Z,18.10
2023-03-06T14:06:54.161Z,14.03
2023-03-06T14:09:26.762Z,14.50
2023-03-06T14:11:55.924Z,15.95
2023-03-06T14:14:29.649Z,15.23
2023-03-06T14:16:58.312Z,16.58
2023-03-06T14:19:30.851Z,13.80
2023-03-06T14:21:58.683Z,13.75
2023-03-06T14:24:31.021Z,13.43
2023-03-06T14:26:58.659Z,14.57
2023-03-06T14:29:26.805Z,17.65
2023-03-06T14:31:55.053Z,13.23
2023-03-06T14:34:24.057Z,15.38
2023-03-06T14:36:54.248Z,11.93
2023-03-06T14:39:23.165Z,11.63
2023-03-06T14:41:50.886Z,17.13
2023-03-06T14:44:19.421Z,15.60
2023-03-06T14:46:47.892Z,15.13
2023-03-06T14:49:16.247Z,15.27
2023-03-06T14:51:44.921Z,12.07
2023-03-06T14:54:16.960Z,18.60
2023-03-06T14:56:46.654Z,13.18
2023-03-06T14:59:16.988Z,14.43
2023-03-06T15:01:45.835Z,18.23
2023-03-06T15:04:20.256Z,14.65
2023-03-06T15:06:48.214Z,15.40
2023-03-06T15:09:20.396Z,17.52
2023-03-06T15:11:55.534Z,20.90
2023-03-06T15:14:28.546Z,14.27
2023-03-06T15:16:57.808Z,19.40
2023-03-06T15:19:25.435Z,17.60
2023-03-06T15:21:53.513Z,11.98
2023-03-06T15:24:31.721Z,15.85
2023-03-06T15:27:01.527Z,14.40
2023-03-06T15:29:29.211Z,15.00
2023-03-06T15:32:11.705Z,15.35
2023-03-06T15:34:39.340Z,18.42
2023-03-06T15:37:20.220Z,20.92
2023-03-06T15:40:03.874Z,17.52
2023-03-06T15:42:35.143Z,19.00
2023-03-06T15:45:05.715Z,18.80
2023-03-06T15:47:33.488Z,15.13
2023-03-06T15:50:01.161Z,24.10
2023-03-06T15:52:28.790Z,18.00
2023-03-06T15:54:57.984Z,20.55
2023-03-06T15:57:29.067Z,14.30
2023-03-06T15:59:57.037Z,18.80
2023-03-06T16:02:26.587Z,17.67
2023-03-06T16:04:54.279Z,18.48
2023-03-06T16:07:22.075Z,16.30
2023-03-06T16:09:49.846Z,16.52
2023-03-06T16:12:19.851Z,13.57
2023-03-06T16:14:48.512Z,14.45
2023-03-06T16:17:16.300Z,12.82
2023-03-06T16:19:44.197Z,13.10
2023-03-06T16:22:11.995Z,16.77
2023-03-06T16:24:40.694Z,15.88
2023-03-06T16:27:08.346Z,17.45
2023-03-06T16:29:37.300Z,17.23
2023-03-06T16:32:05.469Z,17.10
2023-03-06T16:34:34.702Z,14.65
2023-03-06T16:37:03.163Z,15.07
2023-03-06T16:39:30.791Z,16.85
2023-03-06T16:41:58.549Z,12.30
2023-03-06T16:44:26.236Z,19.02
2023-03-06T16:46:55.308Z,12.00
2023-03-06T16:49:23.921Z,13.10
2023-03-06T16:51:52.000Z,17.85
2023-03-06T16:54:19.999Z,11.80
2023-03-06T16:56:47.815Z,13.57
2023-03-06T16:59:16.112Z,13.77
2023-03-06T17:01:44.334Z,13.77
2023-03-06T17:04:13.437Z,10.18
2023-03-06T17:06:41.766Z,12.80
2023-03-06T17:09:10.911Z,14.18
2023-03-06T17:11:38.785Z,10.43
2023-03-06T17:14:07.304Z,9.18
2023-03-06T17:16:37.041Z,11.20
2023-03-06T17:19:04.784Z,10.65
2023-03-06T17:21:35.537Z,12.38
2023-03-06T17:24:03.889Z,11.50
2023-03-06T17:26:31.736Z,11.00
2023-03-06T17:28:59.361Z,16.75
2023-03-06T17:31:30.341Z,11.68
2023-03-06T17:34:00.555Z,12.60
2023-03-06T17:36:28.471Z,12.00
2023-03-06T17:38:57.599Z,16.75
2023-03-06T17:41:28.715Z,19.27
2023-03-06T17:43:57.827Z,14.55
2023-03-06T17:46:25.812Z,15.80
2023-03-06T17:48:53.478Z,12.88
2023-03-06T17:51:21.129Z,12.57
2023-03-06T17:53:49.275Z,11.93
2023-03-06T17:56:18.315Z,13.45
2023-03-06T17:58:46.071Z,9.98
2023-03-06T18:01:14.556Z,7.53
2023-03-06T18:03:44.644Z,12.25
2023-03-06T18:06:12.250Z,12.25
2023-03-06T18:08:41.087Z,10.90
2023-03-06T18:11:09.648Z,9.27
2023-03-06T18:13:39.468Z,9.50
2023-03-06T18:16:09.204Z,7.57
2023-03-06T18:18:36.979Z,9.10
2023-03-06T18:21:05.268Z,10.00
2023-03-06T18:23:32.890Z,7.22
2023-03-06T18:26:09.486Z,9.35
2023-03-06T18:28:42.571Z,13.07
2023-03-06T18:31:15.169Z,13.55
2023-03-06T18:33:43.683Z,10.93
2023-03-06T18:36:11.311Z,8.25
2023-03-06T18:38:40.244Z,14.60
2023-03-06T18:41:09.174Z,14.07
2023-03-06T18:43:36.968Z,21.10
2023-03-06T18:46:06.251Z,10.10
2023-03-06T18:48:33.990Z,11.23
2023-03-06T18:51:25.394Z,16.05
2023-03-06T18:53:56.173Z,16.73
2023-03-06T18:56:23.997Z,11.95
2023-03-06T18:58:51.684Z,15.63
2023-03-06T19:01:21.132Z,13.27
2023-03-06T19:03:49.077Z,13.18
2023-03-06T19:06:20.995Z,13.43
2023-03-06T19:08:48.646Z,10.13
2023-03-06T19:11:17.087Z,9.82
2023-03-06T19:13:45.008Z,10.63
2023-03-06T19:16:18.180Z,16.27
2023-03-06T19:18:47.266Z,13.20
2023-03-06T19:21:15.606Z,10.93
2023-03-06T19:23:43.380Z,11.93
2023-03-06T19:26:11.210Z,16.25
2023-03-06T19:28:40.091Z,28.15
2023-03-06T19:31:11.437Z,12.13
2023-03-06T19:33:39.050Z,9.38
2023-03-06T19:36:09.880Z,19.05
2023-03-06T19:38:37.856Z,9.57
2023-03-06T19:41:06.205Z,15.95
2023-03-06T19:43:33.886Z,15.07
2023-03-06T19:46:01.905Z,14.05
2023-03-06T19:48:30.069Z,8.82
2023-03-06T19:50:57.684Z,11.10
2023-03-06T19:53:28.690Z,12.23
2023-03-06T19:56:03.083Z,13.02
2023-03-06T19:58:30.938Z,15.98
2023-03-06T20:01:03.760Z,10.95
2023-03-06T20:03:31.743Z,9.18
2023-03-06T20:05:59.450Z,11.10
2023-03-06T20:08:29.171Z,17.83
2023-03-06T20:10:56.908Z,14.25
2023-03-06T20:13:24.549Z,17.60
2023-03-06T20:15:52.306Z,11.05
2023-03-06T20:18:20.115Z,13.88
2023-03-06T20:20:58.300Z,7.43
2023-03-06T20:23:26.099Z,16.35
2023-03-06T20:25:55.135Z,12.85
2023-03-06T20:28:22.795Z,10.05
2023-03-06T20:30:50.493Z,9.15
2023-03-06T20:33:19.650Z,15.00
2023-03-06T20:35:47.676Z,8.95
2023-03-06T20:38:15.840Z,10.15
2023-03-06T20:40:44.057Z,10.40
2023-03-06T20:43:13.092Z,13.20
2023-03-06T20:45:41.899Z,10.38
2023-03-06T20:48:10.497Z,9.02
2023-03-06T20:50:38.305Z,7.45
2023-03-06T20:53:08.405Z,8.75
2023-03-06T20:55:39.049Z,6.47
2023-03-06T20:58:06.649Z,16.35
2023-03-06T21:00:36.169Z,8.50
2023-03-06T21:03:03.779Z,9.82
2023-03-06T21:05:31.400Z,11.90
2023-03-06T21:07:59.185Z,8.73
2023-03-06T21:10:26.806Z,7.50
2023-03-06T21:12:54.450Z,11.75
2023-03-06T21:15:22.532Z,8.15
2023-03-06T21:17:51.539Z,11.10
2023-03-06T21:20:19.997Z,8.07
2023-03-06T21:22:48.258Z,18.80
2023-03-06T21:25:15.980Z,7.45
2023-03-06T21:27:43.728Z,9.30
2023-03-06T21:30:12.018Z,7.20
2023-03-06T21:32:39.748Z,9.25
2023-03-06T21:35:11.014Z,5.20
2023-03-06T21:37:38.684Z,5.25
2023-03-06T21:40:07.604Z,3.85
2023-03-06T21:42:36.330Z,5.82
2023-03-06T21:45:04.163Z,4.82
2023-03-06T21:47:37.709Z,4.95
2023-03-06T21:50:05.661Z,3.95
2023-03-06T21:52:34.713Z,6.07
2023-03-06T21:55:02.906Z,7.03
2023-03-06T21:57:30.647Z,6.45
2023-03-06T21:59:58.323Z,9.45
2023-03-06T22:02:29.565Z,2.72
2023-03-06T22:04:57.305Z,12.13
2023-03-06T22:07:25.028Z,4.97
2023-03-06T22:10:02.526Z,4.88
2023-03-06T22:12:30.164Z,3.75
2023-03-06T22:14:57.905Z,9.20
2023-03-06T22:17:25.673Z,10.45
2023-03-06T22:19:53.330Z,9.70
2023-03-06T22:22:21.526Z,9.13
2023-03-06T22:24:49.232Z,10.73
2023-03-06T22:27:18.344Z,11.77
2023-03-06T22:29:46.909Z,7.70
2023-03-06T22:32:15.389Z,5.80
2023-03-06T22:34:43.226Z,8.48
2023-03-06T22:37:10.816Z,4.93
2023-03-06T22:39:38.609Z,6.90
2023-03-06T22:42:06.368Z,8.07
2023-03-06T22:44:35.383Z,6.72
2023-03-06T22:47:03.096Z,11.55
2023-03-06T22:49:30.748Z,10.07
2023-03-06T22:51:58.413Z,7.93
2023-03-06T22:54:26.206Z,7.63
2023-03-06T22:56:53.797Z,5.55
2023-03-06T22:59:21.820Z,6.18
2023-03-06T23:01:50.825Z,5.63
2023-03-06T23:04:19.348Z,12.50
2023-03-06T23:06:47.187Z,6.65
2023-03-06T23:09:15.990Z,11.18
2023-03-06T23:11:43.691Z,6.57
2023-03-06T23:14:12.114Z,6.90
2023-03-06T23:16:40.312Z,8.73
2023-03-06T23:19:09.443Z,13.75
2023-03-06T23:21:37.558Z,9.48
2023-03-06T23:24:06.492Z,7.93
2023-03-06T23:26:34.292Z,9.63
2023-03-06T23:29:02.463Z,7.50
2023-03-06T23:31:31.089Z,6.75
2023-03-06T23:33:59.583Z,9.55
2023-03-06T23:36:29.503Z,9.75
2023-03-06T23:38:57.510Z,7.25
2023-03-06T23:41:25.263Z,10.15
2023-03-06T23:43:55.140Z,9.07
2023-03-06T23:46:23.150Z,7.65
2023-03-06T23:48:50.899Z,6.45
2023-03-06T23:51:19.656Z,9.68
2023-03-06T23:53:49.262Z,7.90
2023-03-06T23:56:17.012Z,10.88
2023-03-06T23:58:45.595Z,9.05
